Flight Track Log - Related Links

Times and Time Zones

All times are in EDT time to prevent confusion due to time zone crossing. See the N957AN flight status page for this flight to view local times or setup timezone preferences in your user account.

Time Position Orientation Groundspeed Altitude Reporting Facility
EDT Latitude Longitude Course Direction KTS MPH feet Rate Location/Type
Mon 02:20:34 PM 41.9333 -87.8667 85° East 203 234 3,000  Level Chicago TRACON
Mon 02:21:34 PM 41.9500 -87.7667 77° East 282 325 5,100 2,838 Climbing Chicago TRACON
Mon 02:23:00 PM 42.1817 -87.3217 66° East  Level FlightAware Approximate
Mon 02:23:21 PM 42.0572 -87.6736 33° Northeast 296 341 10,900  Level Chicago Center
Mon 02:24:00 PM 42.2341 -87.1731 62° Northeast  Level FlightAware Approximate
Mon 02:24:23 PM 42.1278 -87.6050 36° Northeast 315 362 13,900  Level Chicago Center
Mon 02:25:00 PM 42.2681 -87.0272 85° East  Level FlightAware Approximate
Mon 02:25:25 PM 42.1931 -87.4836 54° Northeast 335 386 16,800  Level Chicago Center
Mon 02:26:27 PM 42.2203 -87.3581 74° East 346 398 18,500 1,463 Climbing Chicago Center
Mon 02:27:28 PM 42.2508 -87.2067 75° East 411 473 19,800 1,512 Climbing Chicago Center
Mon 02:28:30 PM 42.2811 -87.0442 76° East 444 511 21,600 1,645 Climbing Chicago Center
Mon 02:29:32 PM 42.2878 -86.8667 87° East 471 542 23,200 1,645 Climbing Chicago Center
Mon 02:30:34 PM 42.2953 -86.6606 87° East 488 562 25,000 1,790 Climbing Chicago Center
Mon 02:31:36 PM 42.3031 -86.4731 87° East 500 575 26,900 1,790 Climbing Chicago Center
Mon 02:32:38 PM 42.3089 -86.2872 88° East 500 575 28,700 1,694 Climbing Chicago Center
Mon 02:33:40 PM 42.3150 -86.1031 87° East 497 572 30,400 1,597 Climbing Chicago Center
Mon 02:34:42 PM 42.3133 -85.9175 91° East 499 574 32,000 1,645 Climbing Chicago Center
Mon 02:35:44 PM 42.3106 -85.6975 91° East 495 570 33,800 1,403 Climbing Chicago Center
Mon 02:36:46 PM 42.3083 -85.5133 91° East 494 568 34,900 655 Climbing Chicago Center
Mon 02:37:34 PM 42.3083 -85.3739 90° East 497 572 35,000 56 Climbing Cleveland Center
Mon 02:38:34 PM 42.3053 -85.1883 91° East 497 572 35,000 500 Level Cleveland Center
Mon 02:39:34 PM 42.3003 -85.0025 92° East 497 572 36,000 500 Climbing Cleveland Center
Mon 02:40:34 PM 42.2989 -84.8169 91° East 497 572 36,000  Level Cleveland Center
Mon 02:41:34 PM 42.2875 -84.6114 94° East 495 570 36,000 500 Level Cleveland Center
Mon 02:42:34 PM 42.2917 -84.4289 88° East 490 564 37,000  Climbing Cleveland Center
Mon 02:43:34 PM 42.3144 -84.2450 80° East 485 558 36,000 -500 Descending Cleveland Center
Mon 02:44:34 PM 42.3303 -84.0633 83° East 485 558 36,000 -200 Level Cleveland Center
Mon 02:45:34 PM 42.3483 -83.8789 82° East 485 558 35,600 -450 Descending Cleveland Center
Mon 02:46:34 PM 42.3611 -83.7194 84° East 485 558 35,100 -300 Descending Cleveland Center
Mon 02:47:34 PM 42.3767 -83.5317 84° East 485 558 35,000 -50 Descending Cleveland Center
Mon 02:48:34 PM 42.3919 -83.3328 84° East 485 558 35,000  Level Cleveland Center
Mon 02:49:34 PM 42.4061 -83.1647 83° East 485 558 35,000  Level Cleveland Center
Mon 02:50:34 PM 42.4186 -82.9822 85° East 485 558 35,000  Level Cleveland Center
Mon 02:51:34 PM 42.4325 -82.8028 84° East 480 552 35,000  Level Cleveland Center
Mon 02:52:34 PM 42.4464 -82.6231 84° East 480 552 35,000  Level Cleveland Center
Mon 02:53:34 PM 42.4597 -82.4464 84° East 474 545 35,000  Level Cleveland Center
Mon 02:54:34 PM 42.4708 -82.2664 85° East 479 551 35,000  Level Cleveland Center
Mon 02:55:34 PM 42.4817 -82.0922 85° East 473 544 35,000  Level Cleveland Center
Mon 02:56:34 PM 42.4942 -81.9122 85° East 478 550 35,000  Level Cleveland Center
Mon 02:57:34 PM 42.5086 -81.7322 84° East 478 550 35,000  Level Cleveland Center
Mon 02:58:34 PM 42.5208 -81.5522 85° East 473 544 35,000  Level Cleveland Center
Mon 02:59:34 PM 42.5325 -81.3750 85° East 479 551 35,000  Level Cleveland Center
Mon 03:00:34 PM 42.5397 -81.1947 87° East 479 551 35,000  Level Cleveland Center
Mon 03:01:34 PM 42.5511 -81.0172 85° East 479 551 35,000  Level Cleveland Center
Mon 03:02:34 PM 42.5642 -80.8228 85° East 479 551 35,000  Level Cleveland Center
Mon 03:03:34 PM 42.5728 -80.6425 86° East 479 551 35,000  Level Cleveland Center
Mon 03:04:34 PM 42.5831 -80.4647 85° East 479 551 35,000  Level Cleveland Center
Mon 03:05:34 PM 42.5933 -80.2814 86° East 479 551 35,000  Level Cleveland Center
Mon 03:06:34 PM 42.6008 -80.1036 87° East 474 545 35,000  Level Cleveland Center
Mon 03:07:34 PM 42.6125 -79.9258 85° East 474 545 35,000  Level Cleveland Center
Mon 03:08:34 PM 42.6219 -79.7481 86° East 474 545 35,000  Level Cleveland Center
Mon 03:09:34 PM 42.6308 -79.5700 86° East 474 545 35,000  Level Cleveland Center
Mon 03:10:34 PM 42.6375 -79.3894 87° East 474 545 35,000  Level Cleveland Center
Mon 03:11:34 PM 42.6439 -79.2086 87° East 479 551 35,000  Level Cleveland Center
Mon 03:12:34 PM 42.6539 -79.0278 86° East 479 551 35,000  Level Cleveland Center
Mon 03:13:34 PM 42.6597 -78.8442 87° East 479 551 35,000  Level Cleveland Center
Mon 03:14:34 PM 42.6672 -78.6603 87° East 479 551 35,000  Level Cleveland Center
Mon 03:15:34 PM 42.6744 -78.4794 87° East 479 551 35,000  Level Cleveland Center
Mon 03:16:34 PM 42.6794 -78.3011 88° East 479 551 35,000  Level Cleveland Center
Mon 03:17:34 PM 42.6883 -78.1200 86° East 479 551 35,000  Level Cleveland Center
Mon 03:18:34 PM 42.6925 -77.9392 88° East 479 551 35,000  Level Cleveland Center
Mon 03:19:34 PM 42.6972 -77.7806 88° East 479 551 35,000  Level Cleveland Center
Mon 03:20:34 PM 42.7033 -77.6053 87° East 474 545 35,000  Level Cleveland Center
Mon 03:22:25 PM 42.7103 -77.2728 88° East 470 541 35,000  Level Boston Center
Mon 03:23:25 PM 42.7156 -77.0953 88° East 465 535 35,000  Level Boston Center
Mon 03:24:25 PM 42.7189 -76.9144 89° East 465 535 35,000  Level Boston Center
Mon 03:25:25 PM 42.7233 -76.7394 88° East 465 535 35,000  Level Boston Center
Mon 03:26:25 PM 42.7261 -76.5586 89° East 470 541 35,000  Level Boston Center
Mon 03:27:25 PM 42.7303 -76.3808 88° East 475 547 35,000  Level Boston Center
Mon 03:28:25 PM 42.7350 -76.1803 88° East 475 547 35,000  Level Boston Center
Mon 03:29:25 PM 42.7367 -75.9994 89° East 475 547 35,000  Level Boston Center
Mon 03:30:25 PM 42.7378 -75.8186 89° East 475 547 35,000  Level Boston Center
Mon 03:31:37 PM 42.7400 -75.6036 89° East 475 547 35,000 -45 Level Boston Center
Mon 03:32:37 PM 42.7428 -75.4228 89° East 475 547 34,900 -300 Descending Boston Center
Mon 03:33:37 PM 42.7453 -75.2419 89° East 475 547 34,400 -650 Descending Boston Center
Mon 03:34:37 PM 42.7456 -75.0583 90° East 475 547 33,600 -700 Descending Boston Center
Mon 03:35:37 PM 42.7472 -74.8772 89° East 475 547 33,000 -300 Descending Boston Center
Mon 03:36:37 PM 42.7469 -74.6936 90° East 475 547 33,000 -50 Level Boston Center
Mon 03:37:37 PM 42.7483 -74.5097 89° East 475 547 32,900  Descending Boston Center
Mon 03:38:37 PM 42.7472 -74.3286 90° East 475 547 33,000  Climbing Boston Center
Mon 03:39:37 PM 42.7461 -74.1450 90° East 480 552 32,900 -50 Descending Boston Center
Mon 03:40:37 PM 42.7447 -73.9556 91° East 480 552 32,900 50 Level Boston Center
Mon 03:41:37 PM 42.7428 -73.7717 91° East 480 552 33,000 -50 Climbing Boston Center
Mon 03:42:37 PM 42.7261 -73.5875 97° East 480 552 32,800 -1,000 Descending Boston Center
Mon 03:43:37 PM 42.7047 -73.4036 99° East 480 552 31,000 -1,800 Descending Boston Center
Mon 03:44:37 PM 42.6875 -73.2253 97° East 485 558 29,200 -1,833 Descending Boston Center
Mon 03:46:00 PM 42.6555 -73.0025 101° East  Level FlightAware Approximate
Mon 03:46:37 PM 42.6475 -72.8636 101° East 504 580 25,500  Level Boston Center
Mon 03:47:37 PM 42.6253 -72.6800 99° East 498 573 23,600 -1,850 Descending Boston Center
Mon 03:48:37 PM 42.6108 -72.5161 97° East 471 542 21,800 -1,600 Descending Boston Center
Mon 03:49:37 PM 42.5839 -72.3414 102° East 471 542 20,400 -1,500 Descending Boston Center
Mon 03:50:37 PM 42.5606 -72.1722 101° East 432 497 18,800 -1,650 Descending Boston Center
Mon 03:51:37 PM 42.5433 -72.0286 99° East 426 490 17,100 -2,200 Descending Boston Center
Mon 03:52:37 PM 42.5281 -71.8597 97° East 419 482 14,400 -2,500 Descending Boston Center
Mon 03:53:37 PM 42.5150 -71.7275 98° East 401 461 12,100 -2,061 Descending Boston Center
Mon 03:54:16 PM 42.5000 -71.6167 100° East 391 450 11,000 -1,212 Descending KA90
Mon 03:55:16 PM 42.5000 -71.4833 90° East 344 396 10,100 -800 Descending KA90
Mon 03:56:16 PM 42.4833 -71.3667 101° East 293 337 9,400 -700 Descending KA90
Mon 03:57:16 PM 42.4667 -71.2667 103° East 282 325 8,700 -737 Descending KA90
Mon 03:58:10 PM 42.4667 -71.1667 90° East 287 330 8,000 -700 Descending KA90
Mon 03:59:16 PM 42.4500 -71.0667 103° East 254 292 7,300 -571 Descending KA90
Mon 04:00:16 PM 42.4167 -71.0000 124° Southeast 227 261 6,800 -400 Descending KA90
Mon 04:01:16 PM 42.3667 -70.9667 154° Southeast 226 260 6,500 -500 Descending KA90
Mon 04:02:16 PM 42.3000 -70.9333 160° South 223 257 5,800 -895 Descending KA90
Mon 04:03:10 PM 42.2500 -70.9667 206° Southwest 209 241 4,800 -947 Descending KA90
Mon 04:04:10 PM 42.2000 -70.9833 194° South 210 242 4,000 -850 Descending KA90
Mon 04:05:10 PM 42.1833 -71.0500 251° West 219 252 3,100 -600 Descending KA90
Mon 04:06:10 PM 42.2333 -71.0667 346° North 194 223 2,800 -700 Descending KA90
Mon 04:07:10 PM 42.2833 -71.0500 14° North 191 220 1,700 -1,048 Descending KA90
Mon 04:08:16 PM 42.3333 -71.0167 26° Northeast 170 196 600 -1,000 Descending KA90
Mon 04:10:00 PM 42.3500 -71.0000 North  Level FlightAware Approximate

Login

Don't have an account? Register now (free) for customized features, flight alerts, and more!